Bamburgh, United Kingdom
Current Conditions -  °F | °C
As of 5:50 PM on Thursday 29 Jan 2015 (Local Time) from EGQM Reporting Station
Scattered Clouds Scattered Clouds  
Wind Chill: 26°   Ceiling: Unl
Heat Index: 34°   Visibility: 6mi
Dew Point: 30°   Wind: 10mph
Humidity: 87%   Direction: 280°W
Pressure: 28.7"   Gusts: NA
Location:  55.61°N, 1.72°W
Report Text: EGQM 291750Z AUTO 28009KT 9999 SCT220/// 01/M01 Q0972
Loading
Personal Weather Stations






























Interactive Weather Map New forecast layout! Learn more

10-Day Weather Forecast

Advertisements
Track Severe Weather on mobile